Time;durP1;ratioP1;P1;durP2;ratioP2;P2;SDS_P1;SDS_P2;PMS_P1;PMS_P2;Temp;Humidity;BMP_temperature;BMP_pressure;BME280_temperature;BME280_humidity;BME280_pressure;Samples;Min_cycle;Max_cycle;Signal;HPM_P1;HPM_P2
2022/12/01 00:01:29;;;;;;;8.00;7.80;;;3.50;99.90;;;;;;5072538;28;20295;-78
2022/12/01 00:03:56;;;;;;;8.10;7.90;;;3.60;99.90;;;;;;5071395;28;20350;-79
2022/12/01 00:06:24;;;;;;;7.77;7.57;;;3.60;99.90;;;;;;5064071;28;20720;-78
2022/12/01 00:11:39;;;;;;;8.00;7.80;;;3.70;99.90;;;;;;5063584;28;20239;-81
2022/12/01 00:14:07;;;;;;;7.87;7.67;;;3.80;99.90;;;;;;5061144;28;20270;-80
2022/12/01 00:16:35;;;;;;;8.17;7.97;;;3.60;99.90;;;;;;5059757;28;20278;-79
2022/12/01 00:19:02;;;;;;;8.23;8.03;;;3.70;99.90;;;;;;5055292;28;20333;-79
2022/12/01 00:21:30;;;;;;;8.07;7.87;;;3.70;99.90;;;;;;5060227;28;20234;-79
2022/12/01 00:23:58;;;;;;;8.13;7.93;;;3.70;99.90;;;;;;5060206;28;20309;-79
2022/12/01 00:26:27;;;;;;;8.03;7.83;;;3.70;99.90;;;;;;5059209;28;20322;-79
2022/12/01 00:28:58;;;;;;;8.30;8.10;;;3.70;99.90;;;;;;5060506;28;20246;-79
2022/12/01 00:31:26;;;;;;;8.00;7.80;;;3.70;99.90;;;;;;5061407;28;20265;-79
2022/12/01 00:33:54;;;;;;;8.03;7.83;;;3.70;99.90;;;;;;5058209;28;20247;-79
2022/12/01 00:36:29;;;;;;;7.90;7.70;;;3.70;99.90;;;;;;5058592;28;20234;-79
2022/12/01 00:39:09;;;;;;;8.20;8.00;;;3.80;99.90;;;;;;5101415;22;20237;-83
2022/12/01 00:41:44;;;;;;;8.07;7.87;;;3.80;99.90;;;;;;5082463;28;20261;-83
2022/12/01 00:44:24;;;;;;;9.00;8.80;;;3.80;99.90;;;;;;5082356;28;20228;-82
2022/12/01 00:46:52;;;;;;;8.73;8.53;;;3.90;99.90;;;;;;5080902;28;20312;-83
2022/12/01 00:49:20;;;;;;;8.80;8.60;;;3.90;99.90;;;;;;5091907;28;20237;-83
2022/12/01 00:51:50;;;;;;;8.93;8.73;;;3.90;99.90;;;;;;5098244;28;20233;-83
2022/12/01 00:54:19;;;;;;;8.90;8.70;;;3.90;99.90;;;;;;5094441;28;20223;-82
2022/12/01 00:56:51;;;;;;;8.97;8.77;;;3.90;99.90;;;;;;5086984;28;20233;-83
2022/12/01 00:59:20;;;;;;;8.77;8.57;;;3.90;99.90;;;;;;5084725;28;20256;-84
2022/12/01 01:01:48;;;;;;;8.70;8.50;;;3.90;99.90;;;;;;5082950;28;20234;-83
2022/12/01 01:04:18;;;;;;;8.57;8.37;;;4.00;99.90;;;;;;5082763;28;20222;-82
2022/12/01 01:06:46;;;;;;;9.10;8.80;;;4.00;99.90;;;;;;5082846;28;20253;-83
2022/12/01 01:09:16;;;;;;;8.77;8.57;;;4.00;99.90;;;;;;5083566;28;20234;-83
2022/12/01 01:11:46;;;;;;;8.60;8.40;;;3.90;99.90;;;;;;5088958;28;20241;-81
2022/12/01 01:14:15;;;;;;;8.70;8.50;;;3.90;99.90;;;;;;5096555;28;20282;-82
2022/12/01 01:16:55;;;;;;;8.90;8.70;;;3.90;99.90;;;;;;5098235;28;20203;-82
2022/12/01 01:19:23;;;;;;;8.87;8.67;;;3.90;99.90;;;;;;5091262;28;20237;-82
2022/12/01 01:21:52;;;;;;;9.30;9.00;;;3.90;99.90;;;;;;5085001;28;20281;-83
2022/12/01 01:24:21;;;;;;;9.03;8.83;;;3.90;99.90;;;;;;5085224;28;20262;-83
2022/12/01 01:26:54;;;;;;;8.70;8.50;;;3.90;99.90;;;;;;5086975;28;20226;-83
2022/12/01 01:29:21;;;;;;;8.77;8.57;;;3.90;99.90;;;;;;5091090;28;20314;-82
2022/12/01 01:31:52;;;;;;;8.73;8.53;;;3.90;99.90;;;;;;5087870;28;20238;-82
2022/12/01 01:34:20;;;;;;;8.87;8.67;;;3.90;99.90;;;;;;5087824;28;20222;-82
2022/12/01 01:36:48;;;;;;;8.73;8.53;;;3.90;99.90;;;;;;5082888;28;20237;-82
2022/12/01 01:39:17;;;;;;;9.30;9.00;;;3.90;99.90;;;;;;5083940;28;20230;-82
2022/12/01 01:41:56;;;;;;;9.13;8.83;;;3.80;99.90;;;;;;5087813;28;20226;-82
2022/12/01 01:44:54;;;;;;;9.50;9.20;;;3.70;99.90;;;;;;5090190;28;20226;-81
2022/12/01 01:47:31;;;;;;;9.50;9.20;;;3.70;99.90;;;;;;5093723;28;20222;-82
2022/12/01 01:50:10;;;;;;;9.53;9.23;;;3.80;99.90;;;;;;5083618;28;20654;-82
2022/12/01 01:52:47;;;;;;;9.47;9.17;;;3.70;99.90;;;;;;5096440;28;20249;-80
2022/12/01 01:55:16;;;;;;;9.53;9.23;;;3.60;99.90;;;;;;5095975;28;20249;-81
2022/12/01 01:57:45;;;;;;;9.50;9.20;;;3.60;99.90;;;;;;5099978;28;20210;-81
2022/12/01 02:00:24;;;;;;;9.40;9.10;;;3.60;99.90;;;;;;5098253;28;20233;-82
2022/12/01 02:03:02;;;;;;;9.60;9.30;;;3.70;99.90;;;;;;5098372;28;20229;-82
2022/12/01 02:05:34;;;;;;;9.40;9.10;;;3.70;99.90;;;;;;5099499;28;20210;-80
2022/12/01 02:08:11;;;;;;;9.23;8.93;;;3.70;99.90;;;;;;5100018;28;20210;-81
2022/12/01 02:10:57;;;;;;;9.27;8.97;;;3.70;99.90;;;;;;5100638;28;20277;-81
2022/12/01 02:13:34;;;;;;;9.43;9.13;;;3.60;99.90;;;;;;5100370;28;20226;-81
2022/12/01 02:16:15;;;;;;;9.57;9.27;;;3.60;99.90;;;;;;5100189;28;20293;-81
2022/12/01 02:19:00;;;;;;;9.50;9.20;;;3.60;99.90;;;;;;5100239;28;20229;-81
2022/12/01 02:21:49;;;;;;;9.50;9.20;;;3.60;99.90;;;;;;5100032;28;20226;-81
2022/12/01 02:25:12;;;;;;;9.13;8.83;;;3.50;99.90;;;;;;5099980;28;20222;-81
2022/12/01 02:28:08;;;;;;;9.40;9.10;;;3.60;99.90;;;;;;5086822;28;20230;-82
2022/12/01 02:30:52;;;;;;;9.40;9.10;;;3.60;99.90;;;;;;5100061;28;20214;-80
2022/12/01 02:33:40;;;;;;;9.23;8.93;;;3.60;99.90;;;;;;5099801;28;20241;-82
2022/12/01 02:36:19;;;;;;;9.40;9.10;;;3.70;99.90;;;;;;5099283;28;20237;-81
2022/12/01 02:38:56;;;;;;;9.13;8.83;;;3.60;99.90;;;;;;5099062;28;20267;-82
2022/12/01 02:41:29;;;;;;;9.40;9.10;;;3.60;99.90;;;;;;5101553;28;20278;-82
2022/12/01 02:47:01;;;;;;;9.10;8.80;;;3.60;99.90;;;;;;5101899;28;20220;-82
2022/12/01 02:49:40;;;;;;;9.30;9.00;;;3.60;99.90;;;;;;5093334;28;20240;-83
2022/12/01 02:52:11;;;;;;;9.23;8.93;;;3.60;99.90;;;;;;5097553;28;20261;-82
2022/12/01 02:54:39;;;;;;;9.13;8.83;;;3.50;99.90;;;;;;5089199;28;20233;-82
2022/12/01 02:59:56;;;;;;;9.23;8.93;;;3.50;99.90;;;;;;5094734;28;20621;-81
2022/12/01 03:02:42;;;;;;;9.20;8.90;;;3.50;99.90;;;;;;5095273;28;20237;-82
2022/12/01 03:05:20;;;;;;;9.30;9.00;;;3.60;99.90;;;;;;5090810;28;20233;-83
2022/12/01 03:07:58;;;;;;;9.20;8.90;;;3.50;99.90;;;;;;5088663;28;20230;-83
2022/12/01 03:10:36;;;;;;;9.10;8.80;;;3.50;99.90;;;;;;5088683;28;20236;-82
2022/12/01 03:13:24;;;;;;;8.83;8.63;;;3.60;99.90;;;;;;5088760;28;20226;-82
2022/12/01 03:16:01;;;;;;;8.70;8.50;;;3.60;99.90;;;;;;5091189;28;20246;-83
2022/12/01 03:18:39;;;;;;;8.70;8.50;;;3.70;99.90;;;;;;5078229;28;20233;-83
2022/12/01 03:24:06;;;;;;;8.83;8.63;;;3.60;99.90;;;;;;5087456;28;20293;-83
2022/12/01 03:26:35;;;;;;;8.80;8.60;;;3.60;99.90;;;;;;5098756;28;20222;-82
2022/12/01 03:29:21;;;;;;;8.90;8.70;;;3.70;99.90;;;;;;5099544;28;20234;-83
2022/12/01 03:32:00;;;;;;;8.83;8.63;;;3.70;99.90;;;;;;5086276;28;20222;-83
2022/12/01 03:34:41;;;;;;;8.93;8.73;;;3.70;99.90;;;;;;5086594;28;20210;-83
2022/12/01 03:37:16;;;;;;;8.90;8.70;;;3.70;99.90;;;;;;5088272;28;20256;-83
2022/12/01 03:39:46;;;;;;;8.97;8.77;;;3.70;99.90;;;;;;5088552;28;20230;-83
2022/12/01 03:45:04;;;;;;;8.90;8.70;;;3.70;99.90;;;;;;5083869;28;20318;-83
2022/12/01 03:47:36;;;;;;;8.80;8.60;;;3.70;99.90;;;;;;5084134;28;20257;-83
2022/12/01 03:50:12;;;;;;;8.77;8.57;;;3.60;99.90;;;;;;5086687;28;20230;-83
2022/12/01 03:52:48;;;;;;;8.60;8.40;;;3.60;99.90;;;;;;5085084;28;20225;-83
2022/12/01 03:55:27;;;;;;;8.77;8.57;;;3.50;99.90;;;;;;5086024;28;20228;-83
2022/12/01 03:58:05;;;;;;;8.60;8.40;;;3.60;99.90;;;;;;5087126;28;20276;-83
2022/12/01 04:00:33;;;;;;;8.40;8.20;;;3.60;99.90;;;;;;5086721;28;20253;-84
2022/12/01 04:03:03;;;;;;;8.80;8.60;;;3.60;99.90;;;;;;5084938;28;20252;-84
2022/12/01 04:05:41;;;;;;;8.63;8.43;;;3.70;99.90;;;;;;5085126;28;20272;-84
2022/12/01 04:08:13;;;;;;;8.60;8.40;;;3.60;99.90;;;;;;5085058;28;20237;-84
2022/12/01 04:10:41;;;;;;;8.40;8.20;;;3.70;99.90;;;;;;5085436;28;20321;-83
2022/12/01 04:13:15;;;;;;;8.57;8.37;;;3.70;99.90;;;;;;5085242;28;20238;-84
2022/12/01 04:15:49;;;;;;;8.47;8.27;;;3.70;99.90;;;;;;5085451;28;20230;-84
2022/12/01 04:18:17;;;;;;;8.50;8.30;;;3.70;99.90;;;;;;5085735;28;20244;-84
2022/12/01 04:26:21;;;;;;;8.27;8.07;;;3.70;99.90;;;;;;5085458;28;20268;-84
2022/12/01 04:28:50;;;;;;;8.40;8.20;;;3.60;99.90;;;;;;5085328;28;20234;-84
2022/12/01 04:31:22;;;;;;;7.77;7.57;;;3.60;99.90;;;;;;5085928;28;20248;-83
2022/12/01 04:33:49;;;;;;;8.00;7.80;;;3.70;99.90;;;;;;5085173;28;20221;-84
2022/12/01 04:36:21;;;;;;;8.00;7.80;;;3.70;99.90;;;;;;5085939;28;20240;-83
2022/12/01 04:38:48;;;;;;;8.00;7.80;;;3.60;99.90;;;;;;5085212;28;20253;-84
2022/12/01 04:41:19;;;;;;;8.20;8.00;;;3.60;99.90;;;;;;5080909;28;20234;-83
2022/12/01 04:43:51;;;;;;;8.27;8.07;;;3.60;99.90;;;;;;5077142;28;20222;-83
2022/12/01 04:46:19;;;;;;;8.20;8.00;;;3.60;99.90;;;;;;5084893;28;20238;-84
2022/12/01 04:48:48;;;;;;;8.20;8.00;;;3.60;99.90;;;;;;5064292;28;20238;-84
2022/12/01 04:51:21;;;;;;;8.50;8.30;;;3.60;99.90;;;;;;5064595;28;20242;-84
2022/12/01 04:53:48;;;;;;;8.50;8.30;;;3.60;99.90;;;;;;5064754;28;20290;-84
2022/12/01 04:56:16;;;;;;;8.50;8.30;;;3.60;99.90;;;;;;5063714;28;20211;-84
2022/12/01 04:58:46;;;;;;;8.50;8.30;;;3.70;99.90;;;;;;5064469;28;20325;-84
2022/12/01 05:01:16;;;;;;;8.37;8.17;;;3.60;99.90;;;;;;5064171;28;20282;-83
2022/12/01 05:03:48;;;;;;;8.37;8.17;;;3.60;99.90;;;;;;5062967;28;20231;-84
2022/12/01 05:06:23;;;;;;;8.57;8.37;;;3.70;99.90;;;;;;5064545;28;20234;-84
2022/12/01 05:08:52;;;;;;;8.33;8.13;;;3.60;99.90;;;;;;5063552;28;20261;-83
2022/12/01 05:11:24;;;;;;;8.60;8.40;;;3.60;99.90;;;;;;5063717;28;20273;-84
2022/12/01 05:13:52;;;;;;;8.70;8.50;;;3.60;99.90;;;;;;5063952;28;20231;-84
2022/12/01 05:16:22;;;;;;;8.70;8.50;;;3.60;99.90;;;;;;5063587;28;20230;-83
2022/12/01 05:20:55;;;;;;;8.67;8.47;;;3.60;99.90;;;;;;5063559;28;20300;-83
2022/12/01 05:21:50;;;;;;;8.77;8.57;;;3.60;99.90;;;;;;5063107;28;20258;-84
2022/12/01 05:24:24;;;;;;;8.90;8.70;;;3.60;99.90;;;;;;5062498;28;20313;-84
2022/12/01 05:26:54;;;;;;;8.80;8.60;;;3.70;99.90;;;;;;5064055;28;20230;-83
2022/12/01 05:29:23;;;;;;;8.77;8.57;;;3.70;99.90;;;;;;5064291;28;20250;-84
2022/12/01 05:31:53;;;;;;;8.80;8.60;;;3.70;99.90;;;;;;5062976;28;20234;-83
2022/12/01 05:34:21;;;;;;;8.80;8.60;;;3.60;99.90;;;;;;5062600;28;20262;-84
2022/12/01 05:39:40;;;;;;;9.20;8.90;;;3.50;99.90;;;;;;5071514;28;20230;-84
2022/12/01 05:42:08;;;;;;;9.10;8.80;;;3.40;99.90;;;;;;5065013;28;20326;-83
2022/12/01 05:44:36;;;;;;;9.20;8.90;;;3.40;99.90;;;;;;5064971;28;20295;-84
2022/12/01 05:47:08;;;;;;;9.17;8.87;;;3.40;99.90;;;;;;5064937;28;20242;-85
2022/12/01 05:49:36;;;;;;;8.77;8.57;;;3.40;99.90;;;;;;5066482;28;20345;-84
2022/12/01 05:52:07;;;;;;;9.20;8.90;;;3.50;99.90;;;;;;5067080;28;20285;-84
2022/12/01 05:54:35;;;;;;;8.70;8.50;;;3.50;99.90;;;;;;5066611;28;20249;-84
2022/12/01 05:57:04;;;;;;;8.90;8.70;;;3.60;99.90;;;;;;5066480;28;20241;-84
2022/12/01 05:59:33;;;;;;;8.90;8.70;;;3.60;99.90;;;;;;5081749;28;20269;-83
2022/12/01 06:02:03;;;;;;;9.07;8.77;;;3.60;99.90;;;;;;5084895;28;20260;-84
2022/12/01 06:04:35;;;;;;;8.77;8.57;;;3.50;99.90;;;;;;5092245;28;20241;-84
2022/12/01 06:07:04;;;;;;;9.10;8.80;;;3.60;99.90;;;;;;5086293;28;20229;-84
2022/12/01 06:09:31;;;;;;;9.20;8.90;;;3.60;99.90;;;;;;5087838;28;20233;-84
2022/12/01 06:12:01;;;;;;;8.93;8.70;;;3.60;99.90;;;;;;5085052;28;20230;-84
2022/12/01 06:14:30;;;;;;;8.73;8.53;;;3.60;99.90;;;;;;5085983;28;20257;-82
2022/12/01 06:17:00;;;;;;;8.70;8.50;;;3.70;99.90;;;;;;5088537;28;20221;-84
2022/12/01 06:19:30;;;;;;;8.60;8.40;;;3.70;99.90;;;;;;5087918;28;20229;-84
2022/12/01 06:21:58;;;;;;;8.80;8.60;;;3.70;99.90;;;;;;5088090;28;20309;-83
2022/12/01 06:24:30;;;;;;;8.80;8.60;;;3.70;99.90;;;;;;5086554;28;20314;-83
2022/12/01 06:26:58;;;;;;;8.70;8.50;;;3.70;99.90;;;;;;5101273;28;20221;-83
2022/12/01 06:29:28;;;;;;;8.70;8.50;;;3.70;99.90;;;;;;5107148;28;20245;-83
2022/12/01 06:31:56;;;;;;;8.63;8.43;;;3.70;99.90;;;;;;5101446;28;20271;-82
2022/12/01 06:34:25;;;;;;;8.80;8.60;;;3.70;99.90;;;;;;5086159;28;20250;-83
2022/12/01 06:36:55;;;;;;;8.70;8.50;;;3.60;99.90;;;;;;5088299;28;20291;-81
2022/12/01 06:39:22;;;;;;;8.73;8.53;;;3.50;99.90;;;;;;5110050;22;20238;-81
2022/12/01 06:41:51;;;;;;;9.40;9.10;;;3.40;99.90;;;;;;5082505;28;20321;-82
2022/12/01 06:44:19;;;;;;;9.30;9.00;;;3.40;99.90;;;;;;5084261;28;20269;-81
2022/12/01 06:46:51;;;;;;;9.20;8.90;;;3.40;99.90;;;;;;5079866;28;20221;-80
2022/12/01 06:49:20;;;;;;;9.20;8.90;;;3.40;99.90;;;;;;5083722;28;20237;-80
2022/12/01 06:51:47;;;;;;;9.37;9.07;;;3.40;99.90;;;;;;5075896;28;20233;-81
2022/12/01 06:54:16;;;;;;;9.20;8.90;;;3.40;99.90;;;;;;5083681;28;20238;-81
2022/12/01 06:56:44;;;;;;;9.60;9.30;;;3.40;99.90;;;;;;5084522;28;20224;-81
2022/12/01 06:59:13;;;;;;;9.50;9.20;;;3.40;99.90;;;;;;5083799;28;20230;-81
2022/12/01 07:01:41;;;;;;;9.70;9.40;;;3.40;99.90;;;;;;5083742;28;20234;-81
2022/12/01 07:04:09;;;;;;;10.00;9.70;;;3.50;99.90;;;;;;5087359;28;20226;-81
2022/12/01 07:06:36;;;;;;;9.97;9.67;;;3.40;99.90;;;;;;5082824;28;20701;-82
2022/12/01 07:09:19;;;;;;;9.30;9.00;;;3.40;99.90;;;;;;5088206;28;20238;-81
2022/12/01 07:11:52;;;;;;;9.13;8.83;;;3.40;99.90;;;;;;5089463;28;20268;-81
2022/12/01 07:14:26;;;;;;;9.40;9.10;;;3.50;99.90;;;;;;5094613;28;20263;-81
2022/12/01 07:16:54;;;;;;;9.50;9.20;;;3.50;99.90;;;;;;5089495;28;20240;-80
2022/12/01 07:19:22;;;;;;;9.60;9.30;;;3.40;99.90;;;;;;5086621;28;20230;-80
2022/12/01 07:21:50;;;;;;;9.60;9.30;;;3.40;99.90;;;;;;5085478;28;20233;-81
2022/12/01 07:24:17;;;;;;;9.60;9.30;;;3.50;99.90;;;;;;5085243;28;20268;-81
2022/12/01 07:26:45;;;;;;;9.77;9.47;;;3.50;99.90;;;;;;5083353;28;20261;-81
2022/12/01 07:29:13;;;;;;;9.60;9.30;;;3.50;99.90;;;;;;5083375;28;20309;-80
2022/12/01 07:31:42;;;;;;;9.60;9.30;;;3.60;99.90;;;;;;5083426;28;20258;-81
2022/12/01 07:34:12;;;;;;;9.70;9.40;;;3.50;99.90;;;;;;5083269;28;20713;-80
2022/12/01 07:36:40;;;;;;;9.70;9.40;;;3.50;99.90;;;;;;5084421;28;20238;-80
2022/12/01 07:39:09;;;;;;;9.80;9.50;;;3.60;99.90;;;;;;5084328;28;20242;-81
2022/12/01 07:41:39;;;;;;;9.30;9.00;;;3.60;99.90;;;;;;5085400;28;20262;-80
2022/12/01 07:44:09;;;;;;;9.50;9.20;;;3.70;99.90;;;;;;5084284;28;20329;-80
2022/12/01 07:46:36;;;;;;;9.50;9.20;;;3.70;99.90;;;;;;5082955;28;20222;-80
2022/12/01 07:49:13;;;;;;;9.47;9.17;;;3.80;99.90;;;;;;5082805;28;20318;-80
2022/12/01 07:51:41;;;;;;;9.53;9.23;;;3.80;99.90;;;;;;5083332;28;20249;-80
2022/12/01 07:54:10;;;;;;;9.47;9.17;;;3.80;99.90;;;;;;5083268;28;20298;-80
2022/12/01 07:56:37;;;;;;;9.70;9.40;;;3.90;99.90;;;;;;5084819;28;20294;-79
2022/12/01 07:59:05;;;;;;;9.40;9.10;;;3.90;99.90;;;;;;5089772;28;20280;-80
2022/12/01 08:01:32;;;;;;;9.33;9.03;;;3.90;99.90;;;;;;5082247;28;20261;-80
2022/12/01 08:04:00;;;;;;;9.20;8.90;;;4.00;99.90;;;;;;5082261;28;20295;-80
2022/12/01 08:06:29;;;;;;;9.50;9.20;;;4.10;99.90;;;;;;5082012;28;20261;-80
2022/12/01 08:09:00;;;;;;;9.27;8.97;;;4.10;99.90;;;;;;5082871;28;20269;-80
2022/12/01 08:11:29;;;;;;;9.40;9.10;;;4.00;99.90;;;;;;5087016;28;20229;-80
2022/12/01 08:13:57;;;;;;;9.50;9.20;;;4.00;99.90;;;;;;5093451;28;20226;-82
2022/12/01 08:16:25;;;;;;;9.33;9.03;;;4.00;99.90;;;;;;5090955;28;20233;-82
2022/12/01 08:18:54;;;;;;;9.20;8.90;;;4.10;99.90;;;;;;5084881;28;20238;-82
2022/12/01 08:21:26;;;;;;;8.90;8.70;;;4.10;99.90;;;;;;5083441;28;20265;-80
2022/12/01 08:23:57;;;;;;;9.40;9.10;;;4.20;99.90;;;;;;5084943;28;20222;-80
2022/12/01 08:26:26;;;;;;;9.43;9.13;;;4.30;99.90;;;;;;5098541;28;20210;-80
2022/12/01 08:28:54;;;;;;;9.70;9.40;;;4.30;99.90;;;;;;5096746;28;20230;-80
2022/12/01 08:31:26;;;;;;;9.67;9.37;;;4.30;99.90;;;;;;5099456;28;20238;-81
2022/12/01 08:33:54;;;;;;;9.50;9.20;;;4.30;99.90;;;;;;5099107;28;20237;-80
2022/12/01 08:36:23;;;;;;;9.70;9.40;;;4.30;99.90;;;;;;5098697;28;20225;-80
2022/12/01 08:38:53;;;;;;;9.50;9.20;;;4.20;99.90;;;;;;5088617;28;20252;-81
2022/12/01 08:41:23;;;;;;;9.67;9.37;;;4.30;99.90;;;;;;5083158;28;20321;-80
2022/12/01 08:43:51;;;;;;;9.50;9.20;;;4.20;99.90;;;;;;5083834;28;21099;-81
2022/12/01 08:46:18;;;;;;;9.40;9.10;;;4.30;99.90;;;;;;5084276;28;20273;-80
2022/12/01 08:48:46;;;;;;;9.40;9.10;;;4.30;99.90;;;;;;5083726;28;20258;-80
2022/12/01 08:51:16;;;;;;;9.40;9.10;;;4.40;99.90;;;;;;5081852;28;20300;-80
2022/12/01 08:53:47;;;;;;;9.40;9.10;;;4.40;99.90;;;;;;5081643;28;20257;-80
2022/12/01 08:56:17;;;;;;;9.30;9.00;;;4.60;99.90;;;;;;5081048;28;20325;-80
2022/12/01 08:58:47;;;;;;;9.40;9.10;;;4.50;99.90;;;;;;5081761;28;20241;-81
2022/12/01 09:01:16;;;;;;;8.90;8.70;;;4.50;99.90;;;;;;5080801;28;20257;-80
2022/12/01 09:03:44;;;;;;;9.27;8.97;;;4.50;99.90;;;;;;5080882;28;20229;-80
2022/12/01 09:06:15;;;;;;;9.40;9.10;;;4.60;99.90;;;;;;5080993;28;20233;-80
2022/12/01 09:08:44;;;;;;;9.10;8.87;;;4.60;99.90;;;;;;5080394;28;20310;-80
2022/12/01 09:11:15;;;;;;;9.30;9.00;;;4.80;99.90;;;;;;5081341;28;20230;-80
2022/12/01 09:13:43;;;;;;;9.60;9.30;;;4.80;99.90;;;;;;5081295;28;20326;-80
2022/12/01 09:16:15;;;;;;;9.60;9.30;;;4.80;99.90;;;;;;5080228;28;20234;-81
2022/12/01 09:18:45;;;;;;;9.43;9.13;;;4.80;99.90;;;;;;5080216;28;20234;-80
2022/12/01 09:21:14;;;;;;;9.33;9.03;;;4.80;99.90;;;;;;5080436;28;20230;-80
2022/12/01 09:23:42;;;;;;;9.33;9.03;;;4.70;99.90;;;;;;5081508;28;20235;-82
2022/12/01 09:26:10;;;;;;;10.00;9.70;;;4.80;99.90;;;;;;5083723;28;20329;-81
2022/12/01 09:28:39;;;;;;;9.80;9.50;;;4.90;99.90;;;;;;5079847;28;20313;-82
2022/12/01 09:31:08;;;;;;;9.67;9.37;;;5.10;99.90;;;;;;5078067;28;20392;-82
2022/12/01 09:33:38;;;;;;;9.60;9.30;;;5.30;99.90;;;;;;5077955;28;21192;-79
2022/12/01 09:36:08;;;;;;;9.70;9.40;;;5.50;99.90;;;;;;5078297;28;20262;-82
2022/12/01 09:38:37;;;;;;;9.73;9.43;;;5.60;99.90;;;;;;5081128;28;20313;-81
2022/12/01 09:41:11;;;;;;;9.60;9.30;;;5.70;99.90;;;;;;5079210;28;20693;-81
2022/12/01 09:43:44;;;;;;;9.60;9.30;;;5.70;99.90;;;;;;5078399;28;20258;-82
2022/12/01 09:46:20;;;;;;;9.50;9.20;;;5.70;99.90;;;;;;5078626;28;20232;-82
2022/12/01 09:48:53;;;;;;;9.30;9.00;;;5.70;99.90;;;;;;5077834;28;20229;-82
2022/12/01 09:51:23;;;;;;;9.57;9.27;;;5.80;99.90;;;;;;5078566;28;20265;-82
2022/12/01 09:53:55;;;;;;;9.70;9.40;;;5.90;99.90;;;;;;5079182;28;20265;-82
2022/12/01 09:56:32;;;;;;;9.47;9.17;;;5.70;99.90;;;;;;5078726;28;20227;-82
2022/12/01 09:59:06;;;;;;;9.50;9.20;;;5.80;99.90;;;;;;5078246;28;20241;-81
2022/12/01 10:01:38;;;;;;;9.40;9.10;;;5.70;99.90;;;;;;5080277;28;20280;-84
2022/12/01 10:04:13;;;;;;;9.40;9.10;;;5.70;99.90;;;;;;5079812;28;20230;-81
2022/12/01 10:06:45;;;;;;;9.20;8.90;;;5.70;99.90;;;;;;5081052;28;20309;-81
2022/12/01 10:09:24;;;;;;;9.60;9.30;;;5.80;99.90;;;;;;5082425;28;20340;-80
2022/12/01 10:12:00;;;;;;;9.70;9.40;;;5.90;99.90;;;;;;5083236;28;20226;-82
2022/12/01 10:14:32;;;;;;;9.80;9.50;;;5.90;99.90;;;;;;5080024;28;20387;-83
2022/12/01 10:17:12;;;;;;;9.60;9.30;;;6.00;99.90;;;;;;5078290;28;20306;-81
2022/12/01 10:19:56;;;;;;;9.30;9.00;;;5.90;99.90;;;;;;5079767;28;20253;-82
2022/12/01 10:23:05;;;;;;;9.60;9.30;;;6.00;99.90;;;;;;5079588;28;20293;-81
2022/12/01 10:25:44;;;;;;;9.60;9.30;;;6.10;99.90;;;;;;5078371;28;20725;-80
2022/12/01 10:28:46;;;;;;;9.60;9.30;;;6.30;99.90;;;;;;5079624;28;20304;-81
2022/12/01 10:31:20;;;;;;;9.30;9.00;;;6.50;99.90;;;;;;5080261;28;20241;-81
2022/12/01 10:34:03;;;;;;;9.33;9.03;;;6.90;99.90;;;;;;5081759;28;20233;-81
2022/12/01 10:36:33;;;;;;;9.80;9.50;;;7.20;99.90;;;;;;5080859;28;20236;-81
2022/12/01 10:39:01;;;;;;;9.70;9.40;;;7.50;99.90;;;;;;5079846;28;20292;-81
2022/12/01 10:41:34;;;;;;;10.00;9.70;;;7.60;99.90;;;;;;5080064;28;20302;-81
2022/12/01 10:44:05;;;;;;;10.00;9.70;;;7.70;99.90;;;;;;5078955;28;20305;-82
2022/12/01 10:46:42;;;;;;;9.70;9.40;;;7.70;99.90;;;;;;5078418;28;20234;-81
2022/12/01 10:49:13;;;;;;;9.90;9.60;;;7.90;99.90;;;;;;5078432;28;20294;-81
2022/12/01 10:51:52;;;;;;;10.10;9.80;;;8.20;99.90;;;;;;5078206;28;20230;-82
2022/12/01 10:54:21;;;;;;;10.00;9.70;;;8.40;99.90;;;;;;5078560;28;20332;-80
2022/12/01 10:56:55;;;;;;;10.03;9.73;;;8.50;99.90;;;;;;5078663;28;20281;-81
2022/12/01 10:59:34;;;;;;;10.03;9.73;;;8.70;99.90;;;;;;5079007;28;20286;-81
2022/12/01 11:02:04;;;;;;;10.20;9.90;;;8.90;99.90;;;;;;5082902;28;20252;-81
2022/12/01 11:04:44;;;;;;;10.00;9.70;;;9.00;99.90;;;;;;5093531;28;20234;-80
2022/12/01 11:07:22;;;;;;;10.10;9.80;;;9.00;99.90;;;;;;5089292;28;20256;-81
2022/12/01 11:10:04;;;;;;;10.20;9.90;;;9.00;99.90;;;;;;5078731;28;20230;-81
2022/12/01 11:12:33;;;;;;;9.77;9.47;;;8.90;99.90;;;;;;5082132;28;20234;-80
2022/12/01 11:15:02;;;;;;;9.90;9.60;;;9.10;99.90;;;;;;5085138;28;20234;-80
2022/12/01 11:17:35;;;;;;;9.57;9.27;;;9.30;99.90;;;;;;5090075;28;20232;-80
2022/12/01 11:20:35;;;;;;;9.83;9.53;;;9.40;99.90;;;;;;5094699;28;20241;-80
2022/12/01 11:23:25;;;;;;;9.53;9.23;;;9.20;99.90;;;;;;5087869;28;20241;-81
2022/12/01 11:26:05;;;;;;;9.60;9.30;;;9.10;99.90;;;;;;5087683;28;20230;-81
2022/12/01 11:28:35;;;;;;;9.20;8.90;;;9.30;99.90;;;;;;5082704;28;20222;-81
2022/12/01 11:31:05;;;;;;;9.40;9.10;;;9.00;99.90;;;;;;5082207;28;20217;-81
2022/12/01 11:33:43;;;;;;;9.67;9.37;;;8.70;99.90;;;;;;5081187;28;20245;-81
2022/12/01 11:36:20;;;;;;;9.40;9.10;;;8.70;99.90;;;;;;5082812;28;20265;-81
2022/12/01 11:38:49;;;;;;;9.70;9.40;;;8.70;99.90;;;;;;5081916;28;20254;-81
2022/12/01 11:41:30;;;;;;;9.60;9.30;;;8.70;99.90;;;;;;5083511;28;20264;-81
2022/12/01 11:44:00;;;;;;;9.70;9.40;;;8.40;99.90;;;;;;5083057;28;20234;-81
2022/12/01 11:46:33;;;;;;;9.77;9.47;;;8.50;99.90;;;;;;5082825;28;20288;-81
2022/12/01 11:49:02;;;;;;;9.90;9.60;;;8.50;99.90;;;;;;5082786;28;20266;-81
2022/12/01 11:51:38;;;;;;;9.70;9.40;;;8.40;99.90;;;;;;5082848;28;20226;-81
2022/12/01 11:54:20;;;;;;;9.57;9.27;;;8.50;99.90;;;;;;5084657;28;20302;-81
2022/12/01 11:56:49;;;;;;;9.80;9.50;;;8.60;99.90;;;;;;5098365;28;20278;-81
2022/12/01 11:59:21;;;;;;;9.60;9.30;;;8.70;99.90;;;;;;5098760;28;20237;-81
2022/12/01 12:02:10;;;;;;;9.87;9.57;;;8.70;99.90;;;;;;5091185;28;20230;-81
2022/12/01 12:05:02;;;;;;;10.10;9.80;;;8.70;99.90;;;;;;5084881;28;20268;-82
2022/12/01 12:07:42;;;;;;;9.80;9.50;;;8.90;99.90;;;;;;5082560;28;20234;-81
2022/12/01 12:10:33;;;;;;;9.70;9.40;;;9.20;99.90;;;;;;5081902;28;20325;-81
2022/12/01 12:13:30;;;;;;;9.70;9.40;;;9.40;99.90;;;;;;5081692;28;20241;-80
2022/12/01 12:16:11;;;;;;;9.60;9.30;;;9.40;99.90;;;;;;5084816;28;20226;-81
2022/12/01 12:19:15;;;;;;;9.60;9.30;;;9.40;99.90;;;;;;5081377;28;20238;-82
2022/12/01 12:21:53;;;;;;;9.47;9.17;;;9.30;99.90;;;;;;5080111;28;20320;-80
2022/12/01 12:24:51;;;;;;;9.50;9.20;;;9.30;99.90;;;;;;5079339;28;20226;-81
2022/12/01 12:27:30;;;;;;;9.50;9.20;;;9.40;99.90;;;;;;5080246;28;20226;-81
2022/12/01 12:30:17;;;;;;;9.53;9.23;;;9.40;99.90;;;;;;5079566;28;20238;-80
2022/12/01 12:33:08;;;;;;;9.40;9.10;;;9.50;99.90;;;;;;5081353;28;20288;-81
2022/12/01 12:35:45;;;;;;;9.53;9.23;;;9.30;99.90;;;;;;5081686;28;20241;-81
2022/12/01 12:38:32;;;;;;;9.60;9.30;;;9.20;99.90;;;;;;5081151;28;20280;-81
2022/12/01 12:41:28;;;;;;;10.03;9.73;;;9.20;99.90;;;;;;5154370;22;20300;-83
2022/12/01 12:44:47;;;;;;;10.00;9.70;;;9.20;99.90;;;;;;5126726;28;20221;-83
2022/12/01 12:47:43;;;;;;;10.00;9.70;;;9.40;99.90;;;;;;5127640;28;20278;-83
2022/12/01 12:50:29;;;;;;;10.30;10.00;;;9.40;99.90;;;;;;5117196;28;20294;-83
2022/12/01 12:53:08;;;;;;;10.10;9.80;;;9.20;99.90;;;;;;5104598;28;20241;-88
2022/12/01 12:55:47;;;;;;;10.30;10.00;;;9.20;99.90;;;;;;5097982;28;20221;-82
2022/12/01 12:58:23;;;;;;;10.50;10.20;;;9.40;99.90;;;;;;5090400;28;20218;-83
2022/12/01 13:01:02;;;;;;;10.47;10.17;;;9.60;99.90;;;;;;5086183;28;20238;-82
2022/12/01 13:03:40;;;;;;;10.47;10.17;;;9.40;99.90;;;;;;5087151;28;20225;-82
2022/12/01 13:06:20;;;;;;;9.90;9.60;;;9.20;99.90;;;;;;5104370;28;20229;-83
2022/12/01 13:08:58;;;;;;;10.00;9.70;;;9.20;99.90;;;;;;5108205;28;20229;-83
2022/12/01 13:11:35;;;;;;;10.30;10.00;;;9.20;99.90;;;;;;5108289;28;20251;-83
2022/12/01 13:14:06;;;;;;;9.80;9.50;;;9.30;99.90;;;;;;5109068;28;20233;-83
2022/12/01 13:16:42;;;;;;;9.67;9.37;;;9.30;99.90;;;;;;5108606;28;20318;-82
2022/12/01 13:19:17;;;;;;;9.83;9.53;;;9.20;99.90;;;;;;5108663;28;20277;-81
2022/12/01 13:21:50;;;;;;;9.70;9.40;;;9.20;99.90;;;;;;5107294;28;20236;-79
2022/12/01 13:24:22;;;;;;;9.80;9.50;;;9.10;99.90;;;;;;5104071;28;20230;-79
2022/12/01 13:26:58;;;;;;;10.03;9.73;;;9.20;99.90;;;;;;5099275;28;20241;-81
2022/12/01 13:29:28;;;;;;;10.30;10.00;;;9.00;99.90;;;;;;5105471;28;20228;-80
2022/12/01 13:32:00;;;;;;;10.00;9.70;;;8.80;99.90;;;;;;5105640;28;20324;-82
2022/12/01 13:34:36;;;;;;;9.80;9.50;;;8.80;99.90;;;;;;5103501;28;20236;-83
2022/12/01 13:37:04;;;;;;;9.90;9.60;;;8.70;99.90;;;;;;5096134;28;20320;-82
2022/12/01 13:39:35;;;;;;;10.00;9.70;;;8.70;99.90;;;;;;5106043;28;20252;-82
2022/12/01 13:42:06;;;;;;;10.00;9.70;;;8.80;99.90;;;;;;5105967;28;20248;-79
2022/12/01 13:44:41;;;;;;;10.00;9.70;;;8.70;99.90;;;;;;5106996;28;20265;-81
2022/12/01 13:48:04;;;;;;;10.20;9.90;;;8.40;99.90;;;;;;5107571;28;20217;-82
2022/12/01 13:51:02;;;;;;;9.90;9.60;;;8.30;99.90;;;;;;5094639;28;20254;-83
2022/12/01 13:53:36;;;;;;;9.83;9.53;;;8.40;99.90;;;;;;5091748;28;20312;-80